»·PEaware :: N368AA KSAN-KLAX

N368AA :: KSAN-KLAX

FLIGHT INFORMATION

Flight Status: Arrived
Operator: Privately registered:
United States
More flights under this callsign
Pilot: Don H. (15606)
Aircraft: BOEING 767-300
(B763)
More flights by this aircraft type
Origin: KSAN San Diego Intl-Lindbergh
United States
Destination: KLAX Los Angeles Intl
United States
More flights between these airports :: More routes between these airports
Route: +PEBLE6 SLI
File this flight plan on PilotEdge
Remarks: EQUIP G
Altitude:
(Current/Filed)
10,000ft
Speed:
(Current/Filed)
300kts
Departed: 09-Jun-17 11:00 AM
Arrived: 09-Jun-17 11:51 AM
Distance/Time
Traveled:
96nm/0:50
Distance/Time
To Go:
Arrived

Flight Plot

Page will automatically refresh every two minutes.


Map Options




Map Legend


Flown Route
Filed Route
Departure Airport
Arrival Airport
Navaid (VOR, NDB)
Fix

Horizontal Profiles

Position Reports

Time Latitude Longitude Heading Altitude Ground
Speed
09-Jun-17 10:23 32.732850 -117.195385 278 28ft 0kts
09-Jun-17 10:24 32.732850 -117.195385 278 28ft 0kts
09-Jun-17 10:25 32.732850 -117.195385 278 28ft 0kts
09-Jun-17 10:26 32.732850 -117.195385 278 28ft 0kts
09-Jun-17 10:27 32.732850 -117.195385 278 28ft 0kts
09-Jun-17 10:28 32.732850 -117.195385 278 28ft 0kts
09-Jun-17 10:29 32.732850 -117.195385 278 28ft 0kts
09-Jun-17 10:30 32.732850 -117.195385 278 28ft 0kts
09-Jun-17 10:31 32.732850 -117.195385 278 28ft 0kts
09-Jun-17 10:32 32.732850 -117.195385 278 28ft 0kts
09-Jun-17 10:33 32.732850 -117.195385 278 28ft 0kts
09-Jun-17 10:34 32.732850 -117.195385 278 28ft 0kts
09-Jun-17 10:35 32.732850 -117.195385 278 28ft 0kts
09-Jun-17 10:36 32.732850 -117.195385 278 28ft 0kts
09-Jun-17 10:37 32.732850 -117.195385 278 28ft 0kts
09-Jun-17 10:38 32.732850 -117.195385 278 28ft 0kts
09-Jun-17 10:39 32.732850 -117.195385 278 28ft 0kts
09-Jun-17 10:40 32.732850 -117.195385 278 28ft 0kts
09-Jun-17 10:41 32.732850 -117.195385 278 28ft 0kts
09-Jun-17 10:42 32.732850 -117.195385 278 28ft 0kts
09-Jun-17 10:43 32.732850 -117.195385 278 28ft 0kts
09-Jun-17 10:44 32.732850 -117.195385 278 28ft 0kts
09-Jun-17 10:45 32.732850 -117.195385 278 28ft 0kts
09-Jun-17 10:46 32.732850 -117.195385 278 28ft 0kts
09-Jun-17 10:47 32.732852 -117.195147 246 28ft 1kts
09-Jun-17 10:48 32.733345 -117.194929 148 28ft 1kts
09-Jun-17 10:49 32.733765 -117.195377 111 28ft 0kts
09-Jun-17 10:50 32.733760 -117.195363 111 28ft 0kts
09-Jun-17 10:51 32.733760 -117.195363 111 28ft 0kts
09-Jun-17 10:52 32.733133 -117.192234 106 28ft 23kts
09-Jun-17 10:53 32.729571 -117.177557 99 28ft 15kts
09-Jun-17 10:54 32.729522 -117.177068 94 28ft 0kts
09-Jun-17 10:55 32.729522 -117.177068 94 28ft 0kts
09-Jun-17 10:56 32.729522 -117.177069 94 28ft 1kts
09-Jun-17 10:57 32.729522 -117.177067 94 28ft 0kts
09-Jun-17 10:58 32.729522 -117.177067 94 28ft 0kts
09-Jun-17 10:59 32.729522 -117.177067 94 28ft 0kts
09-Jun-17 11:00 32.729513 -117.176939 94 28ft 10kts
09-Jun-17 11:01 32.730406 -117.176820 293 28ft 0kts
09-Jun-17 11:02 32.738528 -117.209761 286 726ft 222kts
09-Jun-17 11:03 32.759733 -117.291307 290 4294ft 271kts
09-Jun-17 11:04 32.798966 -117.372052 311 4141ft 289kts
09-Jun-17 11:05 32.864053 -117.423440 343 2944ft 292kts
09-Jun-17 11:06 32.924707 -117.472727 325 4447ft 275kts
09-Jun-17 11:07 32.980191 -117.537989 311 8310ft 290kts
09-Jun-17 11:08 33.033611 -117.613526 310 9942ft 294kts
09-Jun-17 11:09 33.084833 -117.687276 309 9980ft 289kts
09-Jun-17 11:10 33.128615 -117.754094 307 9981ft 289kts
09-Jun-17 11:11 33.178645 -117.828918 321 9968ft 288kts
09-Jun-17 11:12 33.253503 -117.861788 342 9980ft 288kts
09-Jun-17 11:13 33.327352 -117.888715 343 9880ft 258kts
09-Jun-17 11:14 33.399978 -117.914961 342 8211ft 275kts
09-Jun-17 11:15 33.473691 -117.941814 343 7627ft 278kts
09-Jun-17 11:16 33.547214 -117.968563 343 7257ft 277kts
09-Jun-17 11:17 33.609970 -117.991427 343 6976ft 275kts
09-Jun-17 11:18 33.668450 -118.012765 343 6981ft 276kts
09-Jun-17 11:19 33.726011 -118.033796 343 6888ft 249kts
09-Jun-17 11:20 33.776380 -118.053716 326 6884ft 250kts
09-Jun-17 11:21 33.819642 -118.096303 355 5739ft 263kts
09-Jun-17 11:22 33.871997 -118.095153 1 4804ft 265kts
09-Jun-17 11:23 33.923571 -118.093259 1 3971ft 264kts
09-Jun-17 11:24 33.972031 -118.091195 4 3861ft 233kts
09-Jun-17 11:25 34.005726 -118.119949 273 2960ft 224kts
09-Jun-17 11:26 33.987082 -118.163450 231 2453ft 198kts
09-Jun-17 11:27 33.963545 -118.199471 231 1682ft 195kts
09-Jun-17 11:28 33.940955 -118.234069 231 1543ft 180kts
09-Jun-17 11:29 33.919188 -118.267187 229 1562ft 181kts
09-Jun-17 11:30 33.896486 -118.308600 247 2361ft 200kts
09-Jun-17 11:31 33.855697 -118.335045 211 4073ft 206kts
09-Jun-17 11:32 33.865753 -118.387520 332 4193ft 208kts
09-Jun-17 11:33 33.895652 -118.360961 80 3634ft 205kts
09-Jun-17 11:34 33.901535 -118.313550 81 3971ft 208kts
09-Jun-17 11:35 33.907666 -118.262289 81 3968ft 207kts
09-Jun-17 11:36 33.913411 -118.214315 81 3963ft 207kts
09-Jun-17 11:37 33.919280 -118.165354 81 3984ft 212kts
09-Jun-17 11:38 33.925116 -118.116731 81 3982ft 211kts
09-Jun-17 11:39 33.931551 -118.063174 81 3853ft 216kts
09-Jun-17 11:40 33.937766 -118.011504 81 3564ft 211kts
09-Jun-17 11:41 33.935164 -117.956624 130 3897ft 223kts
09-Jun-17 11:42 33.884809 -117.955873 221 4036ft 277kts
09-Jun-17 11:43 33.877128 -118.016515 306 3918ft 254kts
09-Jun-17 11:44 33.910866 -118.057112 321 3819ft 227kts
09-Jun-17 11:45 33.949818 -118.085761 332 3867ft 228kts
09-Jun-17 11:46 33.979980 -118.120889 271 3631ft 230kts
09-Jun-17 11:47 33.975607 -118.170413 263 3142ft 224kts
09-Jun-17 11:48 33.970791 -118.219155 263 2954ft 219kts
09-Jun-17 11:49 33.966409 -118.262556 263 2223ft 183kts
09-Jun-17 11:50 33.962176 -118.304187 263 1237ft 157kts
09-Jun-17 11:51 33.955020 -118.343718 261 526ft 150kts
09-Jun-17 11:52 33.953618 -118.387030 261 352ft 150kts
09-Jun-17 11:53 33.950111 -118.421469 262 136ft 31kts
09-Jun-17 11:54 33.948725 -118.426484 230 136ft 0kts
09-Jun-17 11:55 33.948725 -118.426484 230 136ft 0kts
09-Jun-17 11:56 33.945926 -118.427680 176 136ft 0kts
09-Jun-17 11:57 33.945926 -118.427680 176 136ft 0kts
09-Jun-17 11:58 33.943410 -118.428063 257 136ft 9kts
09-Jun-17 11:59 33.943347 -118.428519 261 136ft 0kts
09-Jun-17 12:00 33.943347 -118.428519 261 136ft 0kts
09-Jun-17 12:01 33.943347 -118.428519 261 136ft 0kts
09-Jun-17 12:02 33.943347 -118.428519 261 136ft 0kts
09-Jun-17 12:03 33.943347 -118.428519 261 136ft 0kts
09-Jun-17 12:04 33.943347 -118.428519 261 136ft 0kts
09-Jun-17 12:05 33.943347 -118.428519 261 136ft 0kts
09-Jun-17 12:06 33.943347 -118.428519 261 136ft 0kts
09-Jun-17 12:07 33.943347 -118.428519 261 136ft 0kts

Navigation Log

Ident Type
1. KSAN Airport
2. MELDY Fix
3. PEBLE Fix
4. SLI Navaid
5. KLAX Airport